KHYR/HYR METAR and TAF weather

Enter ICAO airport designator
Station Type Date Time Source
KHYR METAR 2020/10/29 16:53 UTC NOAA

KHYR 291653Z AUTO 01006KT 10SM OVC033 M01/M07 A3014 RMK AO2 SLP222 T10061067


Station Type Date Time Source
KHYR Decoded METAR 2020/10/29 16:53 UTC NOAA

HAYWARD MUNICIPAL AIRPORT, WI, United States (KHYR) 46-01N 91-27W 370M
Oct 29, 2020 - 12:53 PM EDT / 2020.10.29 1653 UTC
Wind: from the N (010 degrees) at 7 MPH (6 KT):0
Visibility: 10 mile(s):0
Sky conditions: overcast
Temperature: 30.9 F (-0.6 C)
Windchill: 24 F (-4 C):1
Dew Point: 19.9 F (-6.7 C)
Relative Humidity: 63%
Pressure (altimeter): 30.14 in. Hg (1020 hPa)
ob: KHYR 291653Z AUTO 01006KT 10SM OVC033 M01/M07 A3014 RMK AO2 SLP222 T10061067
cycle: 17

Station Type Date Time Source
KHYR TAF 2020/10/29 15:09 UTC NOAA

TAF
AMD KHYR 291507Z 2915/3012 01006KT P6SM BKN040
FM300700 00000KT P6SM VCSH BKN045

Example: see airport list